createdAt,value
2022-12-02T00:00:00.852Z,65.25
2022-12-02T00:03:03.184Z,65.85
2022-12-02T00:06:12.099Z,65.63
2022-12-02T00:09:43.146Z,64.80
2022-12-02T00:12:45.567Z,59.22
2022-12-02T00:15:51.302Z,58.33
2022-12-02T00:18:54.924Z,59.13
2022-12-02T00:21:57.210Z,63.87
2022-12-02T00:24:59.552Z,56.70
2022-12-02T00:28:02.398Z,59.25
2022-12-02T00:31:04.862Z,57.60
2022-12-02T00:34:07.168Z,58.92
2022-12-02T00:37:09.422Z,56.47
2022-12-02T00:40:12.441Z,58.70
2022-12-02T00:43:33.631Z,58.53
2022-12-02T00:46:37.053Z,56.45
2022-12-02T00:49:39.742Z,63.65
2022-12-02T00:52:41.971Z,65.70
2022-12-02T00:55:44.230Z,62.28
2022-12-02T00:58:46.725Z,62.90
2022-12-02T01:01:49.270Z,62.53
2022-12-02T01:04:51.930Z,62.15
2022-12-02T01:07:54.333Z,63.07
2022-12-02T01:10:57.513Z,67.00
2022-12-02T01:13:59.985Z,64.78
2022-12-02T01:17:02.458Z,62.20
2022-12-02T01:20:06.219Z,64.55
2022-12-02T01:23:08.581Z,61.33
2022-12-02T01:26:10.936Z,62.67
2022-12-02T01:29:13.200Z,67.72
2022-12-02T01:32:15.612Z,61.63
2022-12-02T01:35:18.236Z,59.38
2022-12-02T01:38:20.640Z,57.20
2022-12-02T01:41:23.359Z,59.05
2022-12-02T01:44:26.101Z,59.83
2022-12-02T01:47:28.669Z,59.08
2022-12-02T01:50:32.308Z,57.97
2022-12-02T01:53:35.579Z,52.80
2022-12-02T01:56:38.119Z,56.13
2022-12-02T01:59:41.882Z,60.38
2022-12-02T02:02:45.413Z,54.35
2022-12-02T02:05:48.500Z,52.15
2022-12-02T02:08:52.051Z,53.70
2022-12-02T02:11:54.945Z,55.63
2022-12-02T02:14:57.663Z,51.13
2022-12-02T02:18:04.837Z,50.13
2022-12-02T02:21:10.898Z,51.08
2022-12-02T02:24:13.259Z,51.40
2022-12-02T02:27:15.642Z,52.65
2022-12-02T02:30:18.718Z,50.05
2022-12-02T02:33:23.937Z,47.33
2022-12-02T02:36:26.370Z,46.00
2022-12-02T02:39:28.877Z,51.00
2022-12-02T02:42:31.412Z,44.70
2022-12-02T02:45:36.481Z,48.55
2022-12-02T02:48:41.875Z,48.88
2022-12-02T02:51:44.352Z,50.88
2022-12-02T02:54:46.765Z,46.27
2022-12-02T02:57:49.423Z,51.35
2022-12-02T03:01:02.532Z,45.30
2022-12-02T03:04:10.611Z,49.58
2022-12-02T03:07:14.546Z,45.97
2022-12-02T03:10:17.632Z,47.20
2022-12-02T03:13:20.365Z,42.80
2022-12-02T03:16:25.034Z,46.95
2022-12-02T03:19:30.129Z,43.85
2022-12-02T03:22:32.853Z,40.13
2022-12-02T03:25:35.347Z,42.10
2022-12-02T03:28:37.665Z,46.10
2022-12-02T03:31:40.260Z,47.30
2022-12-02T03:34:42.629Z,63.58
2022-12-02T03:37:44.998Z,44.10
2022-12-02T03:40:47.767Z,46.60
2022-12-02T03:43:50.073Z,38.33
2022-12-02T03:46:52.571Z,46.08
2022-12-02T03:49:55.092Z,31.85
2022-12-02T03:52:57.678Z,33.35
2022-12-02T03:56:05.696Z,31.57
2022-12-02T03:59:09.774Z,28.92
2022-12-02T04:02:12.143Z,29.50
2022-12-02T04:05:14.445Z,30.73
2022-12-02T04:08:16.714Z,33.28
2022-12-02T04:11:18.985Z,37.90
2022-12-02T04:14:21.330Z,37.25
2022-12-02T04:17:23.634Z,37.50
2022-12-02T04:20:25.847Z,35.17
2022-12-02T04:23:28.201Z,34.83
2022-12-02T04:26:30.530Z,34.80
2022-12-02T04:29:32.895Z,36.72
2022-12-02T04:32:35.171Z,33.67
2022-12-02T04:35:37.557Z,33.90
2022-12-02T04:38:39.828Z,36.10
2022-12-02T04:41:42.083Z,32.67
2022-12-02T04:44:44.336Z,25.13
2022-12-02T04:47:46.624Z,24.33
2022-12-02T04:50:48.920Z,24.95
2022-12-02T04:53:51.280Z,25.67
2022-12-02T04:56:53.686Z,26.27
2022-12-02T04:59:56.485Z,25.70
2022-12-02T05:02:58.876Z,27.35
2022-12-02T05:06:01.282Z,25.00
2022-12-02T05:09:03.843Z,21.85
2022-12-02T05:12:06.286Z,27.13
2022-12-02T05:15:09.025Z,21.83
2022-12-02T05:18:11.286Z,25.20
2022-12-02T05:21:13.628Z,23.42
2022-12-02T05:24:16.806Z,25.10
2022-12-02T05:27:19.148Z,28.03
2022-12-02T05:30:21.491Z,27.73
2022-12-02T05:33:23.825Z,26.17
2022-12-02T05:36:26.094Z,32.72
2022-12-02T05:39:28.424Z,33.03
2022-12-02T05:42:30.708Z,32.33
2022-12-02T05:45:33.645Z,30.73
2022-12-02T05:48:35.975Z,31.83
2022-12-02T05:51:38.333Z,30.00
2022-12-02T05:54:40.615Z,26.95
2022-12-02T05:57:43.019Z,27.17
2022-12-02T06:00:48.382Z,34.05
2022-12-02T06:03:51.295Z,25.00
2022-12-02T06:06:55.018Z,24.02
2022-12-02T06:09:57.321Z,23.08
2022-12-02T06:13:12.881Z,24.67
2022-12-02T06:16:23.931Z,26.20
2022-12-02T06:19:40.590Z,26.35
2022-12-02T06:22:42.998Z,26.08
2022-12-02T06:25:46.787Z,26.60
2022-12-02T06:28:58.130Z,26.13
2022-12-02T06:32:01.007Z,25.77
2022-12-02T06:35:16.451Z,25.08
2022-12-02T06:38:27.902Z,26.95
2022-12-02T06:41:33.303Z,23.17
2022-12-02T06:44:54.128Z,25.07
2022-12-02T06:48:01.432Z,24.98
2022-12-02T06:51:22.187Z,24.52
2022-12-02T06:54:29.074Z,25.35
2022-12-02T06:57:31.689Z,24.58
2022-12-02T07:00:34.214Z,21.83
2022-12-02T07:03:45.037Z,21.13
2022-12-02T07:06:52.686Z,26.98
2022-12-02T07:09:56.552Z,21.25
2022-12-02T07:13:03.543Z,26.58
2022-12-02T07:16:42.553Z,24.33
2022-12-02T07:19:46.914Z,25.42
2022-12-02T07:22:58.959Z,30.52
2022-12-02T07:26:01.495Z,28.30
2022-12-02T07:29:15.883Z,27.70
2022-12-02T07:32:18.585Z,25.30
2022-12-02T07:45:05.048Z,25.85
2022-12-02T07:48:07.766Z,25.00
2022-12-02T07:51:10.250Z,26.47
2022-12-02T07:54:16.975Z,35.22
2022-12-02T07:57:19.702Z,31.55
2022-12-02T08:00:23.073Z,42.05
2022-12-02T08:03:25.659Z,28.60
2022-12-02T08:06:39.737Z,28.07
2022-12-02T08:09:42.609Z,25.52
2022-12-02T08:12:44.844Z,27.58
2022-12-02T08:15:52.658Z,25.98
2022-12-02T08:18:56.605Z,34.83
2022-12-02T08:21:59.124Z,28.03
2022-12-02T08:25:01.693Z,27.75
2022-12-02T08:28:04.007Z,28.77
2022-12-02T08:31:06.357Z,28.17
2022-12-02T08:34:08.669Z,28.77
2022-12-02T08:37:11.593Z,27.23
2022-12-02T08:40:14.672Z,30.52
2022-12-02T08:43:16.968Z,28.40
2022-12-02T08:46:19.226Z,29.48
2022-12-02T08:49:22.412Z,25.30
2022-12-02T08:52:24.793Z,24.60
2022-12-02T08:55:28.045Z,27.13
2022-12-02T08:58:30.385Z,23.65
2022-12-02T09:01:33.041Z,29.35
2022-12-02T09:04:35.431Z,24.35
2022-12-02T09:07:37.842Z,24.63
2022-12-02T09:10:40.305Z,25.65
2022-12-02T09:13:42.635Z,21.95
2022-12-02T09:16:44.902Z,22.70
2022-12-02T09:19:47.221Z,25.25
2022-12-02T09:22:49.823Z,24.03
2022-12-02T09:25:57.025Z,22.95
2022-12-02T09:28:59.342Z,21.63
2022-12-02T09:32:01.837Z,27.48
2022-12-02T09:35:04.512Z,27.35
2022-12-02T09:38:07.270Z,24.60
2022-12-02T09:41:10.009Z,24.88
2022-12-02T09:44:12.439Z,25.65
2022-12-02T09:47:15.643Z,22.50
2022-12-02T09:50:18.118Z,26.75
2022-12-02T09:53:21.747Z,24.60
2022-12-02T09:56:24.141Z,25.52
2022-12-02T09:59:27.369Z,29.95
2022-12-02T10:02:40.498Z,33.15
2022-12-02T10:05:44.130Z,24.75
2022-12-02T10:08:47.151Z,19.77
2022-12-02T10:11:50.025Z,22.00
2022-12-02T10:15:00.713Z,21.67
2022-12-02T10:18:10.804Z,19.42
2022-12-02T10:21:13.506Z,21.48
2022-12-02T10:24:15.818Z,16.13
2022-12-02T10:27:31.996Z,21.75
2022-12-02T10:30:34.407Z,15.43
2022-12-02T10:33:51.485Z,22.63
2022-12-02T10:36:54.691Z,23.60
2022-12-02T10:40:23.714Z,22.07
2022-12-02T10:43:25.971Z,21.98
2022-12-02T10:46:29.271Z,21.42
2022-12-02T10:49:36.786Z,22.80
2022-12-02T10:52:57.670Z,17.35
2022-12-02T10:55:59.972Z,20.70
2022-12-02T10:59:02.894Z,22.67
2022-12-02T11:02:22.928Z,21.48
2022-12-02T11:05:31.574Z,20.08
2022-12-02T11:08:34.033Z,19.40
2022-12-02T11:11:40.594Z,18.93
2022-12-02T11:14:42.782Z,18.95
2022-12-02T11:17:49.776Z,22.45
2022-12-02T11:21:15.172Z,21.30
2022-12-02T11:24:23.661Z,23.27
2022-12-02T11:27:25.966Z,24.83
2022-12-02T11:30:28.165Z,23.70
2022-12-02T11:33:53.104Z,22.55
2022-12-02T11:37:30.802Z,21.55
2022-12-02T11:40:33.092Z,21.83
2022-12-02T11:44:26.051Z,21.37
2022-12-02T11:47:32.371Z,23.13
2022-12-02T11:50:41.202Z,24.67
2022-12-02T11:53:51.145Z,24.67
2022-12-02T11:56:54.407Z,23.52
2022-12-02T11:59:58.071Z,23.07
2022-12-02T12:03:13.043Z,22.67
2022-12-02T12:06:16.805Z,26.02
2022-12-02T12:09:19.168Z,25.73
2022-12-02T12:12:21.510Z,21.95
2022-12-02T12:15:57.446Z,21.77
2022-12-02T12:19:24.202Z,22.50
2022-12-02T12:22:29.405Z,21.90
2022-12-02T12:25:42.601Z,20.05
2022-12-02T12:28:45.049Z,21.05
2022-12-02T12:31:47.408Z,25.37
2022-12-02T12:34:50.058Z,23.52
2022-12-02T12:37:52.861Z,24.23
2022-12-02T12:40:56.178Z,24.77
2022-12-02T12:43:58.945Z,18.85
2022-12-02T12:47:04.328Z,20.27
2022-12-02T12:50:07.563Z,23.05
2022-12-02T12:53:09.865Z,23.42
2022-12-02T12:56:12.307Z,23.10
2022-12-02T12:59:14.935Z,28.45
2022-12-02T13:02:18.618Z,16.53
2022-12-02T13:05:21.021Z,21.95
2022-12-02T13:08:23.479Z,23.92
2022-12-02T13:11:26.408Z,21.58
2022-12-02T13:14:28.772Z,22.50
2022-12-02T13:17:31.039Z,22.40
2022-12-02T13:20:33.492Z,26.40
2022-12-02T13:23:37.528Z,23.85
2022-12-02T13:26:39.847Z,25.77
2022-12-02T13:29:42.268Z,26.85
2022-12-02T13:32:45.260Z,31.17
2022-12-02T13:35:47.657Z,25.23
2022-12-02T13:38:49.996Z,27.25
2022-12-02T13:41:52.319Z,29.08
2022-12-02T13:44:55.000Z,32.08
2022-12-02T13:47:57.395Z,22.40
2022-12-02T13:51:02.512Z,26.10
2022-12-02T13:54:06.362Z,23.67
2022-12-02T13:57:09.002Z,29.60
2022-12-02T14:00:12.993Z,32.78
2022-12-02T14:03:15.309Z,29.00
2022-12-02T14:06:17.724Z,30.23
2022-12-02T14:09:20.077Z,30.35
2022-12-02T14:12:22.581Z,35.85
2022-12-02T14:15:25.366Z,38.58
2022-12-02T14:18:27.779Z,27.47
2022-12-02T14:21:30.248Z,30.85
2022-12-02T14:24:32.755Z,31.15
2022-12-02T14:27:35.149Z,28.52
2022-12-02T14:30:37.475Z,28.92
2022-12-02T14:34:09.564Z,31.30
2022-12-02T14:37:02.251Z,29.83
2022-12-02T14:40:05.523Z,29.83
2022-12-02T14:43:14.002Z,31.67
2022-12-02T14:46:16.748Z,35.08
2022-12-02T14:52:41.361Z,28.73
2022-12-02T14:55:43.725Z,32.95
2022-12-02T14:58:46.054Z,30.10
2022-12-02T15:01:48.419Z,29.88
2022-12-02T15:04:51.019Z,23.37
2022-12-02T15:07:53.619Z,32.83
2022-12-02T15:10:55.989Z,35.90
2022-12-02T15:13:58.253Z,33.58
2022-12-02T15:17:00.630Z,38.92
2022-12-02T15:20:03.076Z,37.53
2022-12-02T15:23:05.562Z,36.58
2022-12-02T15:26:07.942Z,45.45
2022-12-02T15:29:10.306Z,39.08
2022-12-02T15:32:18.834Z,43.85
2022-12-02T15:35:21.461Z,41.33
2022-12-02T15:38:24.836Z,41.50
2022-12-02T15:41:27.298Z,44.10
2022-12-02T15:44:29.563Z,46.17
2022-12-02T15:47:31.840Z,50.67
2022-12-02T15:50:34.242Z,56.33
2022-12-02T15:53:36.660Z,49.08
2022-12-02T15:56:39.237Z,47.35
2022-12-02T15:59:41.630Z,54.55
2022-12-02T16:02:44.026Z,46.97
2022-12-02T16:05:46.377Z,47.03
2022-12-02T16:08:54.945Z,41.50
2022-12-02T16:11:57.680Z,43.05
2022-12-02T16:15:00.600Z,39.83
2022-12-02T16:18:03.220Z,42.00
2022-12-02T16:21:05.745Z,40.30
2022-12-02T16:24:08.045Z,39.08
2022-12-02T16:27:10.899Z,40.00
2022-12-02T16:30:13.780Z,42.83
2022-12-02T16:33:15.979Z,43.88
2022-12-02T16:36:18.305Z,47.67
2022-12-02T16:39:20.539Z,47.33
2022-12-02T16:42:23.109Z,47.63
2022-12-02T16:45:25.424Z,41.55
2022-12-02T16:48:27.766Z,40.13
2022-12-02T16:51:30.071Z,42.97
2022-12-02T16:54:32.409Z,41.70
2022-12-02T16:57:34.698Z,38.92
2022-12-02T17:00:37.058Z,37.35
2022-12-02T17:03:39.390Z,41.85
2022-12-02T17:06:41.665Z,42.70
2022-12-02T17:09:44.497Z,39.90
2022-12-02T17:12:46.757Z,40.53
2022-12-02T17:15:49.367Z,38.63
2022-12-02T17:18:51.863Z,41.47
2022-12-02T17:21:54.136Z,40.37
2022-12-02T17:24:56.715Z,34.83
2022-12-02T17:27:58.979Z,36.35
2022-12-02T17:31:01.612Z,38.00
2022-12-02T17:34:03.872Z,38.33
2022-12-02T17:37:06.258Z,35.20
2022-12-02T17:40:08.928Z,35.22
2022-12-02T17:43:11.239Z,36.40
2022-12-02T17:46:14.373Z,40.72
2022-12-02T17:49:17.075Z,40.40
2022-12-02T17:52:20.880Z,42.07
2022-12-02T17:55:23.683Z,39.83
2022-12-02T17:58:26.476Z,39.90
2022-12-02T18:01:28.928Z,43.38
2022-12-02T18:04:31.212Z,41.15
2022-12-02T18:07:33.633Z,40.83
2022-12-02T18:10:35.969Z,40.67
2022-12-02T18:13:38.275Z,43.38
2022-12-02T18:16:40.693Z,42.05
2022-12-02T18:19:43.868Z,40.50
2022-12-02T18:22:46.493Z,42.10
2022-12-02T18:25:48.947Z,38.15
2022-12-02T18:28:51.186Z,40.63
2022-12-02T18:31:53.660Z,42.28
2022-12-02T18:34:56.084Z,44.25
2022-12-02T18:37:59.604Z,37.97
2022-12-02T18:41:02.387Z,38.45
2022-12-02T18:44:04.867Z,41.63
2022-12-02T18:47:07.216Z,41.90
2022-12-02T18:50:11.366Z,51.22
2022-12-02T18:53:13.686Z,51.37
2022-12-02T18:56:22.108Z,45.60
2022-12-02T18:59:26.521Z,47.88
2022-12-02T19:02:28.879Z,44.83
2022-12-02T19:05:31.198Z,45.13
2022-12-02T19:08:33.716Z,44.13
2022-12-02T19:11:36.041Z,45.90
2022-12-02T19:14:38.376Z,43.17
2022-12-02T19:17:40.647Z,45.42
2022-12-02T19:20:42.923Z,39.85
2022-12-02T19:23:45.886Z,41.10
2022-12-02T19:26:48.237Z,41.03
2022-12-02T19:29:50.789Z,42.13
2022-12-02T19:32:54.128Z,40.60
2022-12-02T19:35:56.481Z,39.92
2022-12-02T19:38:58.807Z,37.43
2022-12-02T19:42:01.040Z,37.78
2022-12-02T19:45:03.720Z,44.03
2022-12-02T19:48:06.208Z,36.65
2022-12-02T19:51:08.553Z,39.35
2022-12-02T19:54:10.822Z,39.10
2022-12-02T19:57:13.185Z,34.78
2022-12-02T20:00:16.757Z,40.25
2022-12-02T20:03:19.580Z,42.10
2022-12-02T20:06:21.877Z,40.38
2022-12-02T20:09:26.495Z,33.53
2022-12-02T20:12:28.827Z,35.45
2022-12-02T20:15:31.237Z,34.58
2022-12-02T20:18:33.874Z,35.10
2022-12-02T20:21:36.176Z,33.00
2022-12-02T20:24:38.522Z,34.03
2022-12-02T20:27:40.867Z,33.28
2022-12-02T20:30:43.292Z,34.20
2022-12-02T20:33:45.629Z,37.67
2022-12-02T20:36:47.977Z,33.35
2022-12-02T20:39:50.241Z,33.87
2022-12-02T20:42:52.737Z,34.70
2022-12-02T20:45:56.492Z,33.30
2022-12-02T20:48:58.837Z,30.90
2022-12-02T20:52:01.159Z,32.40
2022-12-02T20:55:06.539Z,41.27
2022-12-02T20:58:09.071Z,42.50
2022-12-02T21:01:12.933Z,42.45
2022-12-02T21:04:15.353Z,49.72
2022-12-02T21:07:17.660Z,42.97
2022-12-02T21:10:20.049Z,42.73
2022-12-02T21:13:22.639Z,39.72
2022-12-02T21:16:24.999Z,41.55
2022-12-02T21:19:27.298Z,42.53
2022-12-02T21:22:29.541Z,38.53
2022-12-02T21:25:32.721Z,36.37
2022-12-02T21:28:35.068Z,36.15
2022-12-02T21:31:38.160Z,42.03
2022-12-02T21:34:40.433Z,42.78
2022-12-02T21:37:42.705Z,40.10
2022-12-02T21:40:45.006Z,41.80
2022-12-02T21:43:47.281Z,39.10
2022-12-02T21:46:50.035Z,35.58
2022-12-02T21:49:52.347Z,43.28
2022-12-02T21:52:55.017Z,42.58
2022-12-02T21:55:57.259Z,35.47
2022-12-02T21:58:59.523Z,35.60
2022-12-02T22:02:01.958Z,36.05
2022-12-02T22:05:04.575Z,35.78
2022-12-02T22:08:07.012Z,33.85
2022-12-02T22:11:09.422Z,33.63
2022-12-02T22:14:11.695Z,33.90
2022-12-02T22:17:13.923Z,35.85
2022-12-02T22:20:18.204Z,33.70
2022-12-02T22:23:20.630Z,36.25
2022-12-02T22:26:22.898Z,34.50
2022-12-02T22:29:25.139Z,34.40
2022-12-02T22:32:27.554Z,39.55
2022-12-02T22:35:29.744Z,39.85
2022-12-02T22:38:32.088Z,38.60
2022-12-02T22:41:34.319Z,35.53
2022-12-02T22:44:36.591Z,38.35
2022-12-02T22:47:39.563Z,35.05
2022-12-02T22:50:41.882Z,35.08
2022-12-02T22:53:44.292Z,41.20
2022-12-02T22:56:46.550Z,33.50
2022-12-02T22:59:48.744Z,36.22
2022-12-02T23:02:51.092Z,39.20
2022-12-02T23:05:53.573Z,37.55
2022-12-02T23:08:55.831Z,40.70
2022-12-02T23:11:58.169Z,42.07
2022-12-02T23:15:34.001Z,40.35
2022-12-02T23:18:22.889Z,40.25
2022-12-02T23:21:25.273Z,41.08
2022-12-02T23:24:27.562Z,41.28
2022-12-02T23:27:29.912Z,42.23
2022-12-02T23:30:32.464Z,41.60
2022-12-02T23:33:34.843Z,44.83
2022-12-02T23:36:37.104Z,42.58
2022-12-02T23:39:39.362Z,39.45
2022-12-02T23:42:41.680Z,39.57
2022-12-02T23:45:44.044Z,39.58
2022-12-02T23:48:46.437Z,39.95
2022-12-02T23:51:48.722Z,36.90
2022-12-02T23:54:51.295Z,35.38
2022-12-02T23:57:53.816Z,33.87
